Airfield :
LOGIN :

Register | Disclaimer

   EN    FR    IT 

 










Legend :    VFR   Marginal VFR   IFR   Intensive IFR   Very Intensive IFR
Visi :
Ceiling :
>= 8 km
>= 3000ft
5 to 8 km
1000 to 3000 ft
1500m to 5 km
500 to 1000 ft
800 to 1500m
200 to 500 ft
< 800m
< 200 ft
Symbols :   Thunderstorms  Fog  Heavy snow  Heavy precipitations  Wind > 20 kt
SIGMETs :     Misc.  Thunderstorms  Icing  Turbulence  Mountain Waves  Volcanic Ashes







- Airport Elevation : 39 ft
- IATA code : TRS


LIPQ - Friuli Venezia Giulia Apt. Trieste

CURRENT METAR :
  • 261220Z 10013KT 9999 SCT090 14/02 Q1017

EXPIRED METARs :
  • 261150Z 10021KT 9999 BKN080 14/02 Q1018
  • 261120Z 10019KT 9999 BKN060 15/03 Q1017
  • 261050Z 12017KT 9999 SCT060 16/04 Q1017
  • 261020Z 13012KT 7000 SCT070 16/07 Q1017
  • 260950Z 14011KT 7000 SCT080 16/08 Q1016

TAF TAF LIPQ
Valid from the 26 at 12:00 until the 27 at 12:00 UTC


261100Z 2612/2712 VRB06KT 9999 SCT030
BECMG 2612/2614 07010KT
TEMPO 2612/2616 4000 SHRA
No reported NOTAMs for that airfield.



MET'MAP, your aeronautical weather chart ! - Copyright ORBIFLY December 2007 - Disclaimer

ORBIFLY MET'MAP TEAM :

Programming & Development : Alexandra Zaïnal
Concept & Development : Baudouin d'Aumeries
Co-Development & Prog : Marc-Olivier Méhu
Technical & hardware support : Manuel Goepfert

Contact : metmap@orbifly.com




SOURCES & CREDITS :

   NOAA